Time;durP1;ratioP1;P1;durP2;ratioP2;P2;SDS_P1;SDS_P2;PMS_P1;PMS_P2;Temp;Humidity;BMP_temperature;BMP_pressure;BME280_temperature;BME280_humidity;BME280_pressure;Samples;Min_cycle;Max_cycle;Signal;HPM_P1;HPM_P2
2021/06/27 00:01:39;;;;;;;12.60;11.50;;;17.00;99.90;;;17.91;85.72;97936.22;5223589;28;20213;-63
2021/06/27 00:04:14;;;;;;;13.50;12.30;;;17.10;99.90;;;17.94;85.94;97941.47;5223054;28;20193;-63
2021/06/27 00:06:48;;;;;;;13.55;12.20;;;17.10;99.90;;;17.92;86.55;97943.13;5226262;28;20239;-62
2021/06/27 00:09:21;;;;;;;11.43;10.52;;;17.20;99.90;;;17.92;86.21;97943.13;5222790;28;20284;-62
2021/06/27 00:11:54;;;;;;;12.82;11.63;;;17.10;99.90;;;17.90;86.49;97944.78;5225711;28;20205;-61
2021/06/27 00:14:28;;;;;;;12.63;11.63;;;17.10;99.90;;;17.89;86.51;97937.88;5215734;28;20221;-63
2021/06/27 00:17:02;;;;;;;12.55;11.45;;;17.00;99.90;;;17.84;85.96;97938.56;5225847;28;20214;-61
2021/06/27 00:19:37;;;;;;;12.75;11.68;;;17.00;99.90;;;17.86;86.54;97939.50;5224517;28;20272;-62
2021/06/27 00:22:10;;;;;;;12.85;11.63;;;17.00;99.90;;;17.91;86.40;97945.66;5223536;28;20199;-62
2021/06/27 00:24:44;;;;;;;12.90;11.70;;;17.00;99.90;;;17.82;85.57;97941.09;5225152;28;20203;-62
2021/06/27 00:27:19;;;;;;;12.45;11.40;;;17.00;99.90;;;17.75;85.80;97940.00;5223026;28;20213;-62
2021/06/27 00:29:52;;;;;;;12.57;11.48;;;16.90;99.90;;;17.68;86.07;97939.75;5221401;28;20219;-63
2021/06/27 00:32:25;;;;;;;12.48;11.30;;;16.90;99.90;;;17.72;87.13;97939.03;5221699;28;20228;-62
2021/06/27 00:35:00;;;;;;;12.00;11.00;;;16.90;99.90;;;17.71;87.55;97948.50;5224674;28;20224;-63
2021/06/27 00:37:33;;;;;;;11.90;10.70;;;16.90;99.90;;;17.74;86.70;97948.59;5222590;28;20212;-63
2021/06/27 00:40:10;;;;;;;12.45;11.45;;;16.90;99.90;;;17.77;86.36;97940.06;5215694;28;20662;-62
2021/06/27 00:42:43;;;;;;;12.30;11.20;;;17.00;99.90;;;17.64;86.01;97949.16;5217881;28;20201;-62
2021/06/27 00:45:20;;;;;;;11.88;10.88;;;16.80;99.90;;;17.59;86.28;97942.94;5221594;28;20597;-63
2021/06/27 00:47:53;;;;;;;12.82;11.63;;;16.70;99.90;;;17.52;86.61;97944.47;5225416;28;20213;-62
2021/06/27 00:50:31;;;;;;;11.13;10.07;;;16.70;99.90;;;17.47;85.97;97942.56;5225856;28;20205;-62
2021/06/27 00:53:05;;;;;;;11.15;10.25;;;16.60;99.90;;;17.49;86.63;97931.47;5225435;28;20205;-62
2021/06/27 00:55:39;;;;;;;13.20;11.90;;;16.60;99.90;;;17.46;86.77;97941.72;5222838;28;20193;-62
2021/06/27 00:58:12;;;;;;;12.00;11.00;;;16.70;99.90;;;17.49;87.53;97935.75;5220714;28;20209;-61
2021/06/27 01:00:45;;;;;;;12.32;11.35;;;16.70;99.90;;;17.53;86.41;97937.59;5223907;28;20201;-62
2021/06/27 01:03:18;;;;;;;11.32;10.43;;;16.60;99.90;;;17.48;86.56;97940.06;5225274;28;20563;-61
2021/06/27 01:05:53;;;;;;;11.55;10.57;;;16.60;99.90;;;17.53;86.25;97942.75;5224089;28;20200;-62
2021/06/27 01:08:26;;;;;;;11.80;10.82;;;16.70;99.90;;;17.49;86.50;97954.72;5225656;28;20694;-63
2021/06/27 01:11:00;;;;;;;11.20;10.30;;;16.60;99.90;;;17.45;86.45;97955.44;5224054;28;20200;-62
2021/06/27 01:13:34;;;;;;;11.95;10.95;;;16.50;99.90;;;17.31;86.48;97951.53;5224677;28;20225;-62
2021/06/27 01:16:07;;;;;;;11.30;10.27;;;16.40;99.90;;;17.21;86.73;97957.25;5225593;28;20217;-63
2021/06/27 01:18:40;;;;;;;11.88;10.68;;;16.40;99.90;;;17.23;86.61;97950.44;5225321;28;20613;-62
2021/06/27 01:21:15;;;;;;;11.40;10.40;;;16.30;99.90;;;17.24;86.59;97952.19;5218918;28;20189;-62
2021/06/27 01:23:48;;;;;;;11.77;10.68;;;16.40;99.90;;;17.19;86.80;97953.72;5224333;28;20193;-62
2021/06/27 01:26:21;;;;;;;12.50;11.25;;;16.30;99.90;;;17.24;86.54;97962.53;5225002;28;20692;-60
2021/06/27 01:28:54;;;;;;;12.63;11.45;;;16.40;99.90;;;17.21;86.85;97952.09;5223491;28;20197;-62
2021/06/27 01:31:28;;;;;;;11.43;10.40;;;16.40;99.90;;;17.25;86.74;97956.50;5221681;28;20198;-62
2021/06/27 01:34:02;;;;;;;11.82;10.63;;;16.40;99.90;;;17.29;86.70;97958.38;5224428;28;20217;-62
2021/06/27 01:36:37;;;;;;;10.82;9.95;;;16.40;99.90;;;17.20;86.56;97961.56;5224851;28;20217;-63
2021/06/27 01:39:10;;;;;;;10.57;9.60;;;16.30;99.90;;;17.20;85.93;97961.56;5225376;28;20763;-62
2021/06/27 01:41:49;;;;;;;12.32;11.23;;;16.30;99.90;;;17.15;86.54;97954.47;5222928;28;20204;-62
2021/06/27 01:44:22;;;;;;;10.57;9.77;;;16.30;99.90;;;17.14;86.06;97948.44;5222296;28;20220;-62
2021/06/27 01:46:57;;;;;;;11.07;10.15;;;16.30;99.90;;;17.14;86.31;97947.53;5224765;28;20221;-62
2021/06/27 01:49:30;;;;;;;10.63;9.77;;;16.30;99.90;;;17.12;86.80;97955.25;5220084;28;20196;-61
2021/06/27 01:52:05;;;;;;;11.90;10.18;;;16.30;99.90;;;17.09;86.60;97950.84;5228681;28;20209;-63
2021/06/27 01:54:39;;;;;;;10.20;9.40;;;16.30;99.90;;;17.07;86.09;97957.66;5226468;28;20601;-62
2021/06/27 01:57:18;;;;;;;11.35;10.35;;;16.20;99.90;;;17.04;85.86;97957.56;5227139;28;20213;-62
2021/06/27 01:59:51;;;;;;;11.68;10.73;;;16.10;99.90;;;16.99;86.35;97951.38;5225246;28;20201;-62
2021/06/27 02:02:24;;;;;;;11.95;10.88;;;16.20;99.90;;;16.97;86.61;97955.63;5228214;28;20205;-62
2021/06/27 02:04:57;;;;;;;11.25;10.15;;;16.20;99.90;;;16.97;86.35;97955.63;5227098;28;20193;-61
2021/06/27 02:07:32;;;;;;;11.25;10.35;;;16.10;99.90;;;16.99;86.57;97948.78;5224814;28;20584;-62
2021/06/27 02:10:08;;;;;;;11.77;10.77;;;16.10;99.90;;;17.00;86.81;97953.16;5219640;28;20199;-63
2021/06/27 02:12:41;;;;;;;11.55;10.18;;;16.10;99.90;;;16.99;86.78;97953.94;5227952;28;20197;-62
2021/06/27 02:15:15;;;;;;;11.48;10.50;;;16.20;99.90;;;16.99;86.47;97961.69;5225679;28;20221;-60
2021/06/27 02:17:52;;;;;;;10.68;9.75;;;16.10;99.90;;;17.00;85.79;97950.56;5228196;28;20219;-62
2021/06/27 02:20:27;;;;;;;9.88;9.18;;;16.00;99.90;;;16.98;84.98;97947.03;5227130;28;20197;-62
2021/06/27 02:23:01;;;;;;;10.55;9.50;;;16.00;99.90;;;16.90;85.36;97933.00;5227945;28;20189;-62
2021/06/27 02:25:34;;;;;;;9.95;9.20;;;15.90;99.90;;;16.77;86.12;97941.13;5217921;28;20184;-62
2021/06/27 02:28:07;;;;;;;10.77;9.88;;;15.90;99.90;;;16.75;85.68;97928.16;5224570;28;20612;-61
2021/06/27 02:30:40;;;;;;;10.05;9.25;;;15.90;99.90;;;16.69;85.60;97927.97;5227926;28;20197;-61
2021/06/27 02:33:14;;;;;;;10.40;9.48;;;15.80;99.90;;;16.62;85.82;97936.31;5228063;28;20201;-60
2021/06/27 02:35:47;;;;;;;10.93;10.02;;;15.70;99.90;;;16.54;86.52;97933.47;5222565;28;20235;-62
2021/06/27 02:38:22;;;;;;;11.30;10.27;;;15.70;99.90;;;16.57;86.53;97938.75;5228066;28;20204;-63
2021/06/27 02:40:56;;;;;;;10.75;9.80;;;15.70;99.90;;;16.58;87.60;97937.91;5227789;28;20195;-60
2021/06/27 02:43:29;;;;;;;11.00;10.07;;;15.80;99.90;;;16.67;87.02;97934.75;5235123;28;20217;-62
2021/06/27 02:46:02;;;;;;;10.20;9.35;;;15.80;99.90;;;16.60;87.04;97938.84;5221385;28;20190;-60
2021/06/27 02:48:36;;;;;;;11.57;10.48;;;15.80;99.90;;;16.65;87.70;97941.56;5227438;28;20189;-62
2021/06/27 02:51:09;;;;;;;10.10;9.30;;;15.80;99.90;;;16.63;88.27;97938.97;5220738;28;20680;-62
2021/06/27 02:53:44;;;;;;;11.23;10.23;;;15.80;99.90;;;16.65;87.40;97936.41;5212263;28;20194;-63
2021/06/27 02:56:17;;;;;;;10.57;9.68;;;15.80;99.90;;;16.65;87.69;97918.34;5226323;28;20216;-62
2021/06/27 02:58:50;;;;;;;10.80;9.80;;;15.80;99.90;;;16.67;87.31;97920.16;5226663;28;20207;-62
2021/06/27 03:01:23;;;;;;;10.18;9.38;;;15.80;99.90;;;16.63;87.25;97907.97;5227007;28;20197;-62
2021/06/27 03:03:57;;;;;;;11.05;10.15;;;15.80;99.90;;;16.56;86.62;97898.25;5226823;28;20193;-61
2021/06/27 03:06:30;;;;;;;10.32;9.43;;;15.70;99.90;;;16.55;87.09;97891.34;5227347;28;20220;-60
2021/06/27 03:09:04;;;;;;;10.85;9.95;;;15.70;99.90;;;16.55;87.31;97899.09;5223173;28;20197;-62
2021/06/27 03:11:38;;;;;;;10.45;9.48;;;15.70;99.90;;;16.53;87.32;97894.72;5225716;28;20665;-62
2021/06/27 03:14:11;;;;;;;10.88;9.98;;;15.70;99.90;;;16.46;86.47;97900.50;5226497;28;20221;-61
2021/06/27 03:16:44;;;;;;;11.07;10.15;;;15.70;99.90;;;16.44;86.40;97908.16;5225890;28;20586;-62
2021/06/27 03:19:17;;;;;;;10.88;9.88;;;15.60;99.90;;;16.37;87.07;97908.81;5227270;28;20189;-62
2021/06/27 03:21:50;;;;;;;9.77;9.07;;;15.50;99.90;;;16.33;87.33;97904.34;5227241;28;20650;-62
2021/06/27 03:24:24;;;;;;;10.30;9.50;;;15.50;99.90;;;16.27;86.88;97897.25;5221977;28;20203;-62
2021/06/27 03:26:57;;;;;;;10.90;9.90;;;15.50;99.90;;;16.34;87.55;97895.75;5219014;28;20300;-62
2021/06/27 03:29:30;;;;;;;10.60;9.80;;;15.50;99.90;;;16.33;87.93;97883.69;5224547;28;20197;-61
2021/06/27 03:32:04;;;;;;;10.80;9.90;;;15.50;99.90;;;16.40;88.52;97883.97;5226856;28;20687;-60
2021/06/27 03:34:37;;;;;;;10.23;9.43;;;15.60;99.90;;;16.50;87.81;97889.44;5225493;28;20233;-62
2021/06/27 03:37:10;;;;;;;10.55;9.70;;;15.70;99.90;;;16.55;87.60;97887.91;5226750;28;20220;-62
2021/06/27 03:39:45;;;;;;;11.90;10.90;;;15.80;99.90;;;16.62;88.00;97884.69;5224064;28;20194;-62
2021/06/27 03:42:18;;;;;;;11.82;10.85;;;15.80;99.90;;;16.69;87.96;97885.78;5221300;28;20193;-60
2021/06/27 03:44:51;;;;;;;11.18;10.23;;;15.90;99.90;;;16.77;88.14;97879.19;5224998;28;20281;-62
2021/06/27 03:47:25;;;;;;;11.18;10.07;;;16.10;99.90;;;16.79;87.16;97878.41;5226479;28;20213;-62
2021/06/27 03:49:58;;;;;;;11.38;10.38;;;16.00;99.90;;;16.85;87.06;97881.22;5224182;28;20197;-60
2021/06/27 03:52:31;;;;;;;9.98;9.15;;;16.10;99.90;;;16.91;85.93;97882.22;5226931;28;20471;-60
2021/06/27 03:55:07;;;;;;;10.95;10.00;;;16.10;99.90;;;16.84;86.00;97873.41;5220174;28;20221;-62
2021/06/27 03:57:40;;;;;;;10.98;9.98;;;16.00;99.90;;;16.95;85.59;97864.31;5234427;28;20548;-62
2021/06/27 04:00:15;;;;;;;11.05;9.88;;;16.10;99.90;;;16.98;85.78;97864.41;5226289;28;20724;-60
2021/06/27 04:02:48;;;;;;;10.85;9.90;;;16.10;99.90;;;17.01;85.47;97868.78;5224849;28;20203;-61
2021/06/27 04:05:21;;;;;;;11.15;10.20;;;16.20;99.90;;;17.03;86.27;97856.81;5225380;28;20193;-62
2021/06/27 04:07:54;;;;;;;11.25;10.15;;;16.20;99.90;;;17.07;85.77;97862.09;5224889;28;20210;-62
2021/06/27 04:10:28;;;;;;;11.68;10.48;;;16.20;99.90;;;17.12;84.65;97854.53;5225996;28;20200;-62
2021/06/27 04:13:02;;;;;;;11.07;10.18;;;16.20;99.90;;;17.11;85.64;97847.56;5225849;28;20303;-62
2021/06/27 04:15:35;;;;;;;10.35;9.43;;;16.30;99.90;;;17.09;84.68;97850.13;5223176;28;20255;-62
2021/06/27 04:18:09;;;;;;;10.65;9.65;;;16.20;99.90;;;17.08;85.16;97835.47;5217384;28;20300;-62
2021/06/27 04:20:43;;;;;;;10.88;9.90;;;16.20;99.90;;;17.08;85.31;97845.81;5226067;28;20202;-62
2021/06/27 04:23:16;;;;;;;10.68;9.77;;;16.20;99.90;;;17.06;85.38;97847.44;5226089;28;20230;-62
2021/06/27 04:25:50;;;;;;;10.18;9.38;;;16.20;99.90;;;17.16;85.22;97858.06;5225169;28;20193;-62
2021/06/27 04:28:24;;;;;;;11.10;10.10;;;16.30;99.90;;;17.23;85.81;97875.53;5224818;28;20189;-63
2021/06/27 04:30:57;;;;;;;9.73;8.88;;;16.40;99.90;;;17.37;85.01;97886.25;5225657;28;20577;-62
2021/06/27 04:33:30;;;;;;;10.13;9.25;;;16.50;99.90;;;17.46;84.08;97897.78;5225293;28;20209;-63
2021/06/27 04:36:04;;;;;;;9.95;9.00;;;16.50;99.90;;;17.65;83.11;97896.59;5225276;28;20270;-62
2021/06/27 04:38:37;;;;;;;10.05;9.25;;;16.60;99.90;;;17.70;82.20;97904.50;5220755;28;20205;-63
2021/06/27 04:41:12;;;;;;;9.75;8.95;;;16.60;99.90;;;17.78;81.62;97905.66;5225319;28;20228;-60
2021/06/27 04:43:45;;;;;;;10.32;9.52;;;16.60;99.90;;;17.75;82.65;97908.09;5223230;28;20200;-61
2021/06/27 04:46:18;;;;;;;9.60;8.80;;;16.70;99.90;;;17.88;81.61;97910.22;5221704;28;20607;-61
2021/06/27 04:48:52;;;;;;;10.23;9.23;;;16.70;99.90;;;17.97;81.33;97897.59;5225557;28;20584;-63
2021/06/27 04:51:25;;;;;;;9.15;8.43;;;16.80;99.90;;;17.99;80.59;97885.56;5216001;28;20194;-61
2021/06/27 04:53:58;;;;;;;9.55;8.65;;;16.90;99.90;;;18.09;80.52;97884.13;5222255;28;20193;-63
2021/06/27 04:56:32;;;;;;;10.02;9.13;;;17.10;99.90;;;18.08;80.31;97884.94;5223844;28;20224;-61
2021/06/27 04:59:05;;;;;;;10.15;9.25;;;17.10;99.90;;;18.13;80.06;97885.94;5224501;28;20192;-61
2021/06/27 05:01:38;;;;;;;10.77;9.70;;;17.10;99.90;;;18.31;80.09;97890.75;5217210;28;20689;-62
2021/06/27 05:04:11;;;;;;;11.07;10.07;;;17.30;99.90;;;18.54;78.92;97890.47;5224504;28;20673;-62
2021/06/27 05:06:44;;;;;;;11.35;10.48;;;17.40;99.90;;;18.66;78.20;97894.28;5225537;28;20217;-62
2021/06/27 05:09:17;;;;;;;11.27;10.18;;;17.60;99.90;;;18.86;77.56;97892.22;5224402;28;20301;-62
2021/06/27 05:11:52;;;;;;;10.55;9.70;;;17.70;99.90;;;18.95;77.58;97880.34;5225355;28;20279;-61
2021/06/27 05:14:25;;;;;;;10.85;9.93;;;17.80;99.90;;;19.04;77.45;97880.56;5222834;28;20209;-60
2021/06/27 05:16:58;;;;;;;11.18;10.18;;;17.90;99.90;;;19.11;77.56;97877.25;5225556;28;20258;-62
2021/06/27 05:19:31;;;;;;;9.88;8.98;;;18.10;99.90;;;19.33;76.63;97879.50;5225049;28;20197;-61
2021/06/27 05:22:04;;;;;;;9.88;8.98;;;18.20;99.90;;;19.48;75.82;97883.28;5225352;28;20201;-62
2021/06/27 05:24:38;;;;;;;10.27;9.30;;;18.30;99.90;;;19.53;74.84;97879.97;5225398;28;20211;-62
2021/06/27 05:27:12;;;;;;;9.80;9.00;;;18.30;99.90;;;19.58;75.05;97870.56;5223307;28;20227;-63
2021/06/27 05:29:45;;;;;;;9.95;9.13;;;18.40;99.90;;;19.58;74.79;97870.56;5226291;28;20203;-63
2021/06/27 05:32:18;;;;;;;9.60;8.80;;;18.40;99.90;;;19.86;74.90;97875.47;5220675;28;20216;-61
2021/06/27 05:34:51;;;;;;;9.15;8.27;;;18.60;99.90;;;19.96;74.69;97872.25;5228672;28;20661;-62
2021/06/27 05:37:24;;;;;;;9.57;8.75;;;18.80;99.90;;;20.32;74.06;97866.03;5221247;28;20213;-62
2021/06/27 05:39:57;;;;;;;8.95;8.23;;;19.00;99.90;;;20.66;72.65;97871.03;5227057;28;20197;-62
2021/06/27 05:42:32;;;;;;;8.65;8.05;;;19.30;99.90;;;21.12;70.48;97869.16;5228962;28;20198;-62
2021/06/27 05:45:07;;;;;;;8.75;8.02;;;19.50;99.90;;;21.27;69.64;97862.47;5228758;28;20472;-62
2021/06/27 05:47:41;;;;;;;8.85;8.13;;;19.70;99.90;;;21.46;68.89;97851.50;5226994;28;20753;-62
2021/06/27 05:50:14;;;;;;;8.65;7.95;;;20.00;99.90;;;21.82;67.24;97847.63;5228835;28;20197;-62
2021/06/27 05:52:47;;;;;;;9.38;8.57;;;20.30;99.90;;;22.16;65.78;97842.81;5227109;28;20201;-62
2021/06/27 05:55:21;;;;;;;8.38;7.78;;;20.60;99.90;;;22.40;64.73;97835.25;5227035;28;20201;-62
2021/06/27 05:57:55;;;;;;;7.88;7.25;;;20.80;99.90;;;22.68;64.47;97835.53;5228017;28;20264;-62
2021/06/27 06:00:28;;;;;;;8.02;7.43;;;21.00;99.90;;;22.57;63.65;97838.03;5229403;28;20300;-62
2021/06/27 06:03:01;;;;;;;8.63;6.82;;;20.90;99.90;;;22.56;64.30;97831.09;5228628;28;20194;-63
2021/06/27 06:05:35;;;;;;;8.43;7.72;;;20.80;99.90;;;22.51;64.29;97843.19;5226210;28;20305;-62
2021/06/27 06:08:08;;;;;;;8.02;7.53;;;20.70;99.90;;;22.53;64.64;97846.69;5228336;28;20217;-62
2021/06/27 06:10:41;;;;;;;8.25;7.53;;;20.70;99.90;;;22.59;64.53;97849.34;5228582;28;20219;-63
2021/06/27 06:13:16;;;;;;;7.45;6.82;;;20.80;99.90;;;22.70;63.17;97846.84;5220572;28;20687;-63
2021/06/27 06:15:49;;;;;;;7.43;6.93;;;20.90;99.90;;;22.65;64.50;97848.53;5225369;28;20224;-61
2021/06/27 06:18:22;;;;;;;7.82;7.22;;;20.90;99.90;;;22.60;63.59;97850.22;5228189;28;20661;-62
2021/06/27 06:20:55;;;;;;;7.60;7.00;;;20.90;99.90;;;22.62;63.90;97848.50;5227812;28;20201;-61
2021/06/27 06:23:28;;;;;;;7.35;6.65;;;21.00;99.90;;;22.60;64.58;97858.91;5228060;28;20203;-64
2021/06/27 06:26:01;;;;;;;7.65;7.13;;;20.90;99.90;;;22.62;64.83;97846.78;5225265;28;20657;-64
2021/06/27 06:28:38;;;;;;;7.90;7.38;;;21.00;99.90;;;22.90;63.50;97841.81;5227888;28;20220;-64
2021/06/27 06:31:11;;;;;;;8.10;7.30;;;21.10;99.90;;;22.89;63.71;97850.47;5223794;28;20196;-64
2021/06/27 06:33:44;;;;;;;7.85;7.18;;;21.10;99.90;;;23.13;63.72;97848.09;5224871;28;20223;-63
2021/06/27 06:36:18;;;;;;;7.80;7.30;;;21.50;99.90;;;23.63;62.80;97838.81;5224114;28;20709;-63
2021/06/27 06:38:51;;;;;;;7.57;7.07;;;21.90;99.90;;;24.28;61.22;97845.19;5224879;28;20208;-63
2021/06/27 06:41:24;;;;;;;7.30;6.70;;;22.30;99.90;;;24.62;59.10;97840.91;5222085;28;20200;-64
2021/06/27 06:44:02;;;;;;;7.15;6.65;;;22.60;99.90;;;24.78;59.12;97840.91;5222886;28;20684;-63
2021/06/27 06:46:35;;;;;;;7.30;6.80;;;22.80;99.90;;;25.00;58.62;97847.03;5221461;28;20211;-63
2021/06/27 06:49:08;;;;;;;6.72;6.22;;;23.10;99.90;;;25.40;56.85;97847.88;5225153;28;20676;-63
2021/06/27 06:51:41;;;;;;;7.40;6.82;;;23.40;99.90;;;25.82;55.65;97846.00;5226140;28;20201;-63
2021/06/27 06:54:14;;;;;;;7.32;6.82;;;23.90;99.90;;;26.18;54.18;97849.34;5223388;28;20201;-64
2021/06/27 06:56:48;;;;;;;6.90;6.47;;;24.30;99.90;;;26.60;52.94;97850.88;5225110;28;20598;-63
2021/06/27 06:59:22;;;;;;;6.55;6.05;;;24.40;99.90;;;26.73;52.75;97844.69;5223111;28;20189;-64
2021/06/27 07:01:55;;;;;;;6.80;6.30;;;24.60;99.90;;;26.79;52.10;97849.00;5219215;28;20658;-64
2021/06/27 07:04:28;;;;;;;6.40;5.80;;;24.70;99.90;;;27.04;51.23;97846.16;5220492;28;20193;-63
2021/06/27 07:07:02;;;;;;;6.78;6.28;;;24.70;99.90;;;27.25;51.14;97832.03;5225570;28;20680;-63
2021/06/27 07:09:35;;;;;;;7.05;6.55;;;25.10;99.90;;;27.79;49.78;97829.72;5218738;28;20582;-63
2021/06/27 07:12:10;;;;;;;7.50;6.95;;;25.60;99.90;;;28.30;47.81;97833.41;5225509;28;20203;-64
2021/06/27 07:14:45;;;;;;;6.35;5.95;;;26.40;99.90;;;28.85;47.35;97825.59;5216071;28;20368;-64
2021/06/27 07:17:18;;;;;;;6.35;5.85;;;26.90;99.90;;;29.53;45.77;97820.91;5224626;28;20231;-64
2021/06/27 07:19:51;;;;;;;5.90;5.50;;;27.70;99.70;;;29.91;44.15;97821.91;5225395;28;20192;-64
2021/06/27 07:22:25;;;;;;;5.80;5.40;;;27.70;98.90;;;29.86;44.38;97819.34;5223299;28;20197;-63
2021/06/27 07:24:58;;;;;;;5.97;5.57;;;27.50;98.80;;;29.27;45.32;97823.13;5224689;28;20204;-63
2021/06/27 07:27:31;;;;;;;6.15;5.60;;;27.10;99.30;;;29.29;45.82;97821.34;5222755;28;20590;-64
2021/06/27 07:30:08;;;;;;;5.40;5.10;;;27.00;99.50;;;29.69;45.33;97816.22;5217457;28;20193;-64
2021/06/27 07:32:41;;;;;;;5.10;4.80;;;27.40;99.30;;;29.66;45.45;97816.28;5222369;28;20199;-63
2021/06/27 07:35:15;;;;;;;5.55;5.05;;;27.30;99.40;;;29.39;45.77;97820.28;5226511;28;20188;-63
2021/06/27 07:37:49;;;;;;;5.15;4.75;;;26.90;99.80;;;29.37;46.07;97808.91;5218010;28;20224;-63
2021/06/27 07:40:22;;;;;;;5.80;5.40;;;27.00;99.90;;;29.16;46.79;97829.47;5223969;28;20196;-64
2021/06/27 07:42:55;;;;;;;5.40;5.10;;;26.90;99.70;;;29.37;46.34;97814.16;5223307;28;20193;-63
2021/06/27 07:45:29;;;;;;;5.95;5.45;;;27.00;99.30;;;29.53;44.95;97820.91;5223580;28;20266;-63
2021/06/27 07:48:03;;;;;;;5.90;5.50;;;27.50;98.50;;;29.98;43.72;97810.31;5224200;28;20222;-63
2021/06/27 07:50:36;;;;;;;5.28;4.97;;;27.90;97.90;;;30.66;42.42;97811.47;5220798;28;20238;-63
2021/06/27 07:53:10;;;;;;;4.82;4.53;;;28.10;96.70;;;31.16;41.08;97817.25;5225063;28;20193;-63
2021/06/27 07:55:43;;;;;;;4.90;4.60;;;28.70;95.90;;;31.66;39.81;97817.69;5223849;28;20303;-64
2021/06/27 07:58:17;;;;;;;5.30;4.90;;;29.20;95.10;;;32.23;39.18;97819.56;5221962;28;20208;-64
2021/06/27 08:00:51;;;;;;;4.95;4.65;;;29.40;94.80;;;32.19;38.62;97822.34;5222650;28;20192;-61
2021/06/27 08:03:24;;;;;;;4.57;4.18;;;29.70;93.90;;;32.58;38.18;97817.63;5221393;28;20656;-64
2021/06/27 08:05:57;;;;;;;4.45;4.20;;;29.90;93.20;;;32.41;38.45;97822.56;5219372;28;20275;-62
2021/06/27 08:08:30;;;;;;;4.97;4.32;;;29.80;94.20;;;32.64;37.11;97825.38;5224353;28;20200;-63
2021/06/27 08:11:04;;;;;;;4.57;4.28;;;29.90;93.20;;;32.02;38.03;97820.22;5222233;28;20196;-64
2021/06/27 08:13:37;;;;;;;4.50;4.30;;;29.50;93.10;;;31.67;37.84;97814.13;5221962;28;20204;-64
2021/06/27 08:16:11;;;;;;;3.90;3.70;;;29.00;92.90;;;31.63;38.62;97815.16;5223490;28;20213;-63
2021/06/27 08:18:45;;;;;;;3.75;3.50;;;29.10;93.40;;;31.97;38.28;97817.72;5219847;28;20213;-64
2021/06/27 08:21:19;;;;;;;4.10;3.90;;;29.30;93.20;;;32.19;36.69;97812.63;5223143;28;20189;-64
2021/06/27 08:23:52;;;;;;;4.13;3.85;;;29.50;91.60;;;32.15;37.17;97812.78;5224786;28;20663;-64
2021/06/27 08:26:25;;;;;;;3.60;3.40;;;29.60;91.70;;;32.00;37.70;97811.47;5219573;28;20212;-64
2021/06/27 08:28:58;;;;;;;3.40;3.20;;;29.90;91.70;;;32.09;36.64;97805.91;5221915;28;20221;-64
2021/06/27 08:31:32;;;;;;;3.60;3.40;;;30.10;90.20;;;32.18;37.27;97805.63;5220930;28;20585;-65
2021/06/27 08:34:08;;;;;;;3.88;3.50;;;30.40;91.00;;;32.20;38.25;97792.34;5222977;28;20196;-64
2021/06/27 08:36:41;;;;;;;4.00;3.80;;;30.60;91.00;;;31.79;38.82;97795.31;5223091;28;20212;-64
2021/06/27 08:39:14;;;;;;;4.13;3.80;;;30.40;90.90;;;31.56;37.86;97795.06;5218759;28;20200;-64
2021/06/27 08:41:47;;;;;;;4.15;3.85;;;30.50;89.30;;;31.77;38.81;97791.81;5221028;28;20219;-64
2021/06/27 08:44:21;;;;;;;3.67;3.47;;;30.40;90.80;;;31.53;38.24;97789.88;5222375;28;20212;-65
2021/06/27 08:46:56;;;;;;;3.88;3.58;;;30.40;90.60;;;31.62;37.10;97784.31;5220051;28;20220;-64
2021/06/27 08:49:31;;;;;;;3.88;3.60;;;30.30;89.00;;;31.69;38.03;97783.25;5225719;28;20626;-64
2021/06/27 08:52:05;;;;;;;3.80;3.60;;;30.50;90.00;;;31.57;36.87;97788.91;5229465;28;20581;-63
2021/06/27 08:54:38;;;;;;;3.65;3.45;;;30.80;86.80;;;31.64;37.88;97787.78;5216934;28;20193;-63
2021/06/27 08:57:12;;;;;;;3.72;3.42;;;30.40;89.60;;;31.21;37.15;97783.66;5223188;28;20213;-65
2021/06/27 08:59:46;;;;;;;3.50;3.30;;;30.10;87.50;;;31.39;37.59;97790.25;5217318;28;20196;-65
2021/06/27 09:02:21;;;;;;;3.20;3.00;;;30.40;87.40;;;31.51;36.93;97789.06;5221979;28;20192;-64
2021/06/27 09:04:54;;;;;;;3.25;3.05;;;30.40;87.00;;;31.21;36.29;97788.97;5224397;28;20192;-65
2021/06/27 09:07:30;;;;;;;3.10;2.90;;;30.30;85.90;;;31.48;36.82;97797.06;5218919;28;20290;-65
2021/06/27 09:10:07;;;;;;;3.15;2.95;;;30.60;85.40;;;31.42;33.94;97792.84;5225537;28;20656;-64
2021/06/27 09:12:59;;;;;;;3.08;2.88;;;30.50;81.20;;;30.66;34.27;97790.34;5223405;28;20206;-64
2021/06/27 09:15:42;;;;;;;3.45;3.20;;;30.00;80.10;;;30.83;34.96;97782.91;5222781;28;20228;-63
2021/06/27 09:18:28;;;;;;;3.20;3.00;;;29.90;81.70;;;30.46;37.83;97782.91;5220366;28;20227;-65
2021/06/27 09:21:07;;;;;;;3.10;2.90;;;29.70;85.90;;;30.48;36.59;97787.25;5221139;28;20201;-64
2021/06/27 09:23:43;;;;;;;3.40;3.20;;;29.80;83.30;;;30.56;35.55;97783.56;5211527;28;20201;-65
2021/06/27 09:26:28;;;;;;;3.45;3.25;;;30.00;81.80;;;30.62;37.00;97783.41;5225115;28;20234;-63
2021/06/27 09:29:01;;;;;;;3.17;2.97;;;30.00;83.00;;;30.65;37.25;97783.34;5218990;28;20201;-64
2021/06/27 09:31:40;;;;;;;3.22;3.03;;;30.00;84.70;;;30.35;36.08;97791.06;5224605;28;20203;-64
2021/06/27 09:34:16;;;;;;;3.55;3.35;;;29.70;81.30;;;30.43;36.22;97794.41;5224219;28;20203;-65
2021/06/27 09:36:51;;;;;;;3.33;3.13;;;29.80;82.40;;;30.03;37.08;97784.72;5224913;28;20223;-64
2021/06/27 09:39:26;;;;;;;3.70;3.50;;;29.50;83.30;;;29.97;36.83;97784.00;5217307;28;20213;-64
2021/06/27 09:42:03;;;;;;;3.45;3.22;;;29.30;82.80;;;29.96;37.65;97785.78;5221724;28;20195;-64
2021/06/27 09:44:37;;;;;;;3.00;2.80;;;29.20;84.20;;;29.71;37.91;97777.53;5218833;28;20563;-64
2021/06/27 09:47:10;;;;;;;3.30;3.10;;;29.10;84.50;;;30.01;38.88;97775.97;5215466;28;20722;-64
2021/06/27 09:49:45;;;;;;;3.60;3.40;;;29.40;85.40;;;30.22;38.12;97773.81;5218367;28;20204;-64
2021/06/27 09:52:34;;;;;;;3.60;3.30;;;29.70;84.50;;;30.26;38.18;97780.75;5218213;28;20193;-64
2021/06/27 09:55:10;;;;;;;3.45;3.22;;;29.70;85.30;;;30.45;37.98;97786.47;5222154;28;20201;-64
2021/06/27 09:57:43;;;;;;;4.20;3.90;;;29.70;84.60;;;30.42;37.85;97771.56;5221246;28;20234;-65
2021/06/27 10:00:32;;;;;;;3.35;3.15;;;30.00;84.20;;;30.42;36.54;97763.66;5223196;28;20189;-64
2021/06/27 10:03:09;;;;;;;3.92;3.65;;;30.00;81.80;;;29.98;37.87;97768.13;5225214;28;20591;-63
2021/06/27 10:05:44;;;;;;;3.25;3.05;;;29.40;83.40;;;29.39;36.73;97759.72;5217799;28;20570;-64
2021/06/27 10:08:30;;;;;;;3.72;3.53;;;28.90;82.20;;;29.32;38.51;97758.09;5224954;28;20279;-61
2021/06/27 10:11:11;;;;;;;3.90;3.60;;;28.70;85.50;;;29.48;38.27;97748.97;5226501;28;20275;-61
2021/06/27 10:13:47;;;;;;;3.53;3.33;;;28.80;84.80;;;29.54;39.57;97750.63;5223937;28;20208;-62
2021/06/27 10:16:30;;;;;;;3.17;2.97;;;28.90;86.90;;;29.66;39.67;97752.16;5228613;28;20610;-62
2021/06/27 10:19:05;;;;;;;3.78;3.58;;;29.10;87.40;;;29.37;38.95;97750.97;5216680;28;20585;-62
2021/06/27 10:21:39;;;;;;;3.70;3.40;;;28.80;85.10;;;29.27;38.56;97759.94;5219884;28;20197;-62
2021/06/27 10:24:13;;;;;;;3.38;3.17;;;28.70;85.40;;;29.41;37.97;97761.38;5224476;28;20574;-62
2021/06/27 10:26:46;;;;;;;3.50;3.05;;;28.80;84.90;;;29.25;39.85;97753.84;5223114;28;20221;-62
2021/06/27 10:29:22;;;;;;;3.80;3.60;;;28.70;85.50;;;29.38;37.99;97757.94;5218929;28;20193;-63
2021/06/27 10:31:57;;;;;;;3.67;3.47;;;28.80;83.80;;;29.10;38.34;97747.97;5223346;28;20211;-64
2021/06/27 10:34:30;;;;;;;3.10;2.90;;;28.60;82.50;;;29.30;38.24;97744.97;5226492;28;20199;-62
2021/06/27 10:37:12;;;;;;;3.60;3.40;;;28.70;84.40;;;29.39;37.89;97754.44;5221131;28;20240;-62
2021/06/27 10:39:57;;;;;;;3.65;3.45;;;28.80;83.00;;;29.02;37.60;97751.63;5222577;28;20216;-62
2021/06/27 10:42:54;;;;;;;3.40;3.20;;;28.50;82.00;;;29.11;38.43;97760.22;5219688;28;20634;-62
2021/06/27 10:45:30;;;;;;;3.65;3.45;;;28.50;83.80;;;29.05;38.90;97744.56;5219376;28;20585;-62